Bumpus Mills, Tennessee
Current Conditions -  °F | °C
As of 11:58 PM on Saturday 20 Dec 2014 (Local Time) from KHOP Reporting Station
Clear Clear  
Wind Chill: 29°   Ceiling: Unl
Heat Index: 29°   Visibility: 10mi
Dew Point: 25°   Wind: 1mph
Humidity: 85%   Direction: 50°NE
Pressure: 30.27"   Gusts: NA
Location:  36.6°N, 87.84°W
Report Text: KHOP 210558Z AUTO 05001KT 10SM CLR M01/M04 A3027 RMK AO2 SLP257 T10151037 10011 21018 400451018 55001
Loading
Personal Weather Stations






























Interactive Weather Map New forecast layout! Learn more

10-Day Weather Forecast

Advertisements
Track Severe Weather on mobile